createdAt,value
2018-08-19T00:00:55.849Z,63.57
2018-08-19T00:01:55.888Z,63.29
2018-08-19T00:02:55.926Z,63.00
2018-08-19T00:03:55.967Z,63.67
2018-08-19T00:04:56.003Z,63.86
2018-08-19T00:05:56.042Z,64.25
2018-08-19T00:06:56.084Z,63.29
2018-08-19T00:07:56.123Z,64.53
2018-08-19T00:08:56.157Z,63.48
2018-08-19T00:09:56.193Z,64.43
2018-08-19T00:10:56.233Z,64.62
2018-08-19T00:11:56.274Z,65.01
2018-08-19T00:12:56.311Z,65.97
2018-08-19T00:13:56.348Z,66.25
2018-08-19T00:14:56.394Z,65.20
2018-08-19T00:15:56.433Z,65.77
2018-08-19T00:16:56.465Z,64.62
2018-08-19T00:17:56.503Z,64.62
2018-08-19T00:18:56.541Z,63.76
2018-08-19T00:19:56.589Z,63.39
2018-08-19T00:20:56.626Z,63.76
2018-08-19T00:21:56.663Z,63.00
2018-08-19T00:22:56.700Z,62.04
2018-08-19T00:23:56.733Z,61.57
2018-08-19T00:24:56.770Z,61.09
2018-08-19T00:25:56.810Z,60.99
2018-08-19T00:26:56.849Z,60.80
2018-08-19T00:27:56.894Z,60.80
2018-08-19T00:28:56.935Z,60.42
2018-08-19T00:29:56.962Z,59.56
2018-08-19T00:30:57.000Z,58.12
2018-08-19T00:31:57.042Z,57.75
2018-08-19T00:32:57.077Z,57.71
2018-08-19T00:33:57.118Z,57.75
2018-08-19T00:34:57.154Z,57.93
2018-08-19T00:35:57.194Z,57.81
2018-08-19T00:36:57.234Z,57.62
2018-08-19T00:37:57.277Z,57.43
2018-08-19T00:38:57.309Z,57.07
2018-08-19T00:39:57.346Z,56.67
2018-08-19T00:40:57.389Z,56.95
2018-08-19T00:41:57.421Z,56.57
2018-08-19T00:42:57.459Z,56.18
2018-08-19T00:43:57.500Z,55.61
2018-08-19T00:44:57.538Z,55.13
2018-08-19T00:45:57.574Z,55.13
2018-08-19T00:46:57.613Z,53.89
2018-08-19T00:47:57.650Z,53.89
2018-08-19T00:48:57.696Z,53.03
2018-08-19T00:49:57.785Z,52.65
2018-08-19T00:50:57.765Z,52.08
2018-08-19T00:51:57.803Z,51.98
2018-08-19T00:52:57.844Z,51.12
2018-08-19T00:53:57.879Z,50.93
2018-08-19T00:54:57.920Z,50.45
2018-08-19T00:55:57.957Z,50.90
2018-08-19T00:56:57.994Z,49.66
2018-08-19T00:57:58.045Z,49.85
2018-08-19T00:58:58.072Z,48.42
2018-08-19T00:59:58.109Z,48.54
2018-08-19T01:00:58.148Z,49.28
2018-08-19T01:01:58.184Z,47.85
2018-08-19T01:02:58.224Z,47.85
2018-08-19T01:03:58.263Z,47.08
2018-08-19T01:04:58.301Z,46.13
2018-08-19T01:05:58.337Z,46.42
2018-08-19T01:06:58.375Z,46.13
2018-08-19T01:07:58.414Z,45.75
2018-08-19T01:08:58.452Z,46.13
2018-08-19T01:09:58.490Z,45.56
2018-08-19T01:10:58.677Z,45.17
2018-08-19T01:11:58.568Z,43.65
2018-08-19T01:12:58.611Z,43.74
2018-08-19T01:13:58.640Z,43.17
2018-08-19T01:14:58.680Z,43.65
2018-08-19T01:15:58.724Z,44.51
2018-08-19T01:16:58.757Z,44.41
2018-08-19T01:17:58.793Z,44.51
2018-08-19T01:18:58.831Z,46.13
2018-08-19T01:19:58.869Z,46.61
2018-08-19T01:20:58.915Z,47.37
2018-08-19T01:21:58.951Z,47.85
2018-08-19T01:22:58.984Z,48.13
2018-08-19T01:23:59.025Z,48.71
2018-08-19T01:24:59.059Z,48.33
2018-08-19T01:25:59.099Z,48.04
2018-08-19T01:26:59.140Z,47.94
2018-08-19T01:27:59.174Z,47.75
2018-08-19T01:28:59.214Z,48.23
2018-08-19T01:29:59.249Z,48.61
2018-08-19T01:30:59.288Z,48.33
2018-08-19T01:31:59.325Z,49.18
2018-08-19T01:32:59.363Z,49.28
2018-08-19T01:33:59.402Z,48.80
2018-08-19T01:34:59.443Z,48.33
2018-08-19T01:35:59.479Z,48.23
2018-08-19T01:36:59.568Z,47.08
2018-08-19T01:37:59.551Z,47.47
2018-08-19T01:38:59.590Z,47.47
2018-08-19T01:39:59.629Z,48.13
2018-08-19T01:40:59.667Z,48.52
2018-08-19T01:41:59.706Z,48.52
2018-08-19T01:42:59.742Z,47.94
2018-08-19T01:43:59.780Z,49.38
2018-08-19T01:44:59.820Z,48.61
2018-08-19T01:45:59.855Z,49.38
2018-08-19T01:46:59.895Z,48.04
2018-08-19T01:47:59.932Z,48.23
2018-08-19T01:48:59.971Z,48.04
2018-08-19T01:50:00.012Z,48.23
2018-08-19T01:51:00.046Z,48.90
2018-08-19T01:52:00.085Z,49.47
2018-08-19T01:53:00.122Z,47.66
2018-08-19T01:54:00.159Z,46.42
2018-08-19T01:55:00.198Z,46.13
2018-08-19T01:56:00.236Z,45.08
2018-08-19T01:57:00.285Z,44.51
2018-08-19T01:58:00.312Z,44.51
2018-08-19T01:59:00.351Z,44.60
2018-08-19T02:00:00.387Z,43.84
2018-08-19T02:01:00.427Z,43.53
2018-08-19T02:02:00.494Z,42.97
2018-08-19T02:03:00.504Z,42.97
2018-08-19T02:04:00.544Z,42.69
2018-08-19T02:05:00.576Z,41.62
2018-08-19T02:06:00.616Z,41.62
2018-08-19T02:07:00.654Z,40.76
2018-08-19T02:08:00.691Z,40.37
2018-08-19T02:09:00.737Z,39.81
2018-08-19T02:10:00.766Z,39.81
2018-08-19T02:11:00.814Z,39.71
2018-08-19T02:12:00.849Z,39.23
2018-08-19T02:13:00.881Z,38.95
2018-08-19T02:14:00.918Z,38.85
2018-08-19T02:15:00.954Z,37.80
2018-08-19T02:16:00.996Z,37.71
2018-08-19T02:17:01.031Z,37.42
2018-08-19T02:18:01.068Z,36.85
2018-08-19T02:19:01.108Z,36.75
2018-08-19T02:20:01.144Z,36.37
2018-08-19T02:21:01.184Z,36.18
2018-08-19T02:22:01.218Z,36.08
2018-08-19T02:23:01.268Z,36.46
2018-08-19T02:24:01.305Z,36.27
2018-08-19T02:25:01.342Z,36.66
2018-08-19T02:26:01.370Z,36.66
2018-08-19T02:27:01.408Z,36.27
2018-08-19T02:28:01.452Z,35.89
2018-08-19T02:29:01.485Z,35.22
2018-08-19T02:30:01.522Z,35.99
2018-08-19T02:31:01.560Z,35.70
2018-08-19T02:32:01.598Z,35.22
2018-08-19T02:33:01.638Z,35.03
2018-08-19T02:34:01.672Z,34.36
2018-08-19T02:35:01.712Z,34.34
2018-08-19T02:36:01.748Z,34.46
2018-08-19T02:37:01.791Z,33.89
2018-08-19T02:38:01.825Z,33.41
2018-08-19T02:39:01.863Z,33.29
2018-08-19T02:40:01.914Z,32.82
2018-08-19T02:41:01.936Z,32.34
2018-08-19T02:42:01.979Z,31.58
2018-08-19T02:43:02.025Z,31.58
2018-08-19T02:44:02.049Z,31.20
2018-08-19T02:45:02.088Z,31.20
2018-08-19T02:46:02.126Z,31.20
2018-08-19T02:47:02.162Z,30.91
2018-08-19T02:48:02.201Z,29.96
2018-08-19T02:49:02.239Z,29.77
2018-08-19T02:50:02.275Z,29.48
2018-08-19T02:51:02.313Z,29.29
2018-08-19T02:52:02.349Z,29.48
2018-08-19T02:53:02.390Z,28.91
2018-08-19T02:54:02.436Z,28.62
2018-08-19T02:55:02.463Z,28.24
2018-08-19T02:56:02.502Z,27.67
2018-08-19T02:57:02.541Z,27.09
2018-08-19T02:58:02.576Z,26.81
2018-08-19T02:59:02.620Z,27.19
2018-08-19T03:00:02.663Z,26.72
2018-08-19T03:01:02.691Z,27.09
2018-08-19T03:02:02.727Z,26.90
2018-08-19T03:03:02.765Z,27.67
2018-08-19T03:04:02.806Z,27.95
2018-08-19T03:05:02.843Z,28.33
2018-08-19T03:06:02.877Z,28.81
2018-08-19T03:07:02.917Z,28.72
2018-08-19T03:08:02.954Z,28.33
2018-08-19T03:09:02.990Z,27.38
2018-08-19T03:10:03.030Z,27.19
2018-08-19T03:11:03.065Z,27.09
2018-08-19T03:12:03.106Z,26.81
2018-08-19T03:13:03.141Z,26.32
2018-08-19T03:14:03.181Z,26.43
2018-08-19T03:15:03.263Z,26.61
2018-08-19T03:16:03.254Z,26.43
2018-08-19T03:17:03.300Z,26.72
2018-08-19T03:18:03.329Z,27.00
2018-08-19T03:19:03.366Z,26.62
2018-08-19T03:20:03.406Z,27.76
2018-08-19T03:21:03.443Z,27.67
2018-08-19T03:22:03.483Z,27.86
2018-08-19T03:23:03.532Z,28.91
2018-08-19T03:24:03.557Z,29.77
2018-08-19T03:25:03.593Z,30.43
2018-08-19T03:26:03.629Z,31.01
2018-08-19T03:27:03.668Z,31.48
2018-08-19T03:28:03.705Z,30.91
2018-08-19T03:29:03.747Z,31.01
2018-08-19T03:30:03.781Z,29.77
2018-08-19T03:31:03.817Z,29.10
2018-08-19T03:32:03.856Z,27.76
2018-08-19T03:33:03.892Z,27.67
2018-08-19T03:34:03.931Z,26.81
2018-08-19T03:35:03.969Z,26.90
2018-08-19T03:36:04.007Z,26.90
2018-08-19T03:37:04.043Z,26.43
2018-08-19T03:38:04.190Z,25.95
2018-08-19T03:39:04.117Z,26.03
2018-08-19T03:40:04.155Z,24.89
2018-08-19T03:41:04.193Z,25.18
2018-08-19T03:42:04.238Z,24.03
2018-08-19T03:43:04.267Z,24.13
2018-08-19T03:44:04.307Z,24.22
2018-08-19T03:45:04.342Z,23.93
2018-08-19T03:46:04.378Z,24.03
2018-08-19T03:47:04.417Z,25.65
2018-08-19T03:48:04.454Z,26.13
2018-08-19T03:49:04.491Z,26.90
2018-08-19T03:50:04.529Z,27.56
2018-08-19T03:51:04.565Z,28.32
2018-08-19T03:52:04.603Z,28.99
2018-08-19T03:53:04.640Z,29.37
2018-08-19T03:54:04.678Z,29.47
2018-08-19T03:55:04.716Z,29.18
2018-08-19T03:56:04.752Z,27.94
2018-08-19T03:57:04.790Z,27.56
2018-08-19T03:58:04.828Z,28.03
2018-08-19T03:59:04.864Z,29.18
2018-08-19T04:00:04.905Z,30.23
2018-08-19T04:01:04.940Z,29.85
2018-08-19T04:02:04.978Z,30.32
2018-08-19T04:03:05.015Z,29.47
2018-08-19T04:04:05.052Z,29.47
2018-08-19T04:05:05.094Z,29.47
2018-08-19T04:06:05.140Z,29.56
2018-08-19T04:07:05.173Z,28.80
2018-08-19T04:08:05.206Z,28.03
2018-08-19T04:09:05.239Z,27.66
2018-08-19T04:10:05.276Z,27.27
2018-08-19T04:11:05.311Z,26.03
2018-08-19T04:12:05.351Z,26.22
2018-08-19T04:13:05.389Z,25.18
2018-08-19T04:14:05.425Z,25.56
2018-08-19T04:15:05.461Z,25.94
2018-08-19T04:16:05.501Z,25.94
2018-08-19T04:17:05.538Z,25.84
2018-08-19T04:18:05.573Z,24.13
2018-08-19T04:19:05.612Z,22.69
2018-08-19T04:20:05.650Z,22.41
2018-08-19T04:21:05.686Z,22.69
2018-08-19T04:22:05.725Z,22.60
2018-08-19T04:23:05.761Z,22.69
2018-08-19T04:24:05.804Z,22.89
2018-08-19T04:25:05.836Z,22.98
2018-08-19T04:26:05.871Z,22.89
2018-08-19T04:27:05.910Z,22.98
2018-08-19T04:28:05.947Z,23.08
2018-08-19T04:29:06.036Z,22.79
2018-08-19T04:30:06.022Z,22.89
2018-08-19T04:31:06.060Z,23.46
2018-08-19T04:32:06.096Z,22.98
2018-08-19T04:33:06.137Z,22.98
2018-08-19T04:34:06.171Z,22.89
2018-08-19T04:35:06.208Z,21.74
2018-08-19T04:36:06.246Z,21.64
2018-08-19T04:37:06.283Z,21.26
2018-08-19T04:38:06.320Z,21.64
2018-08-19T04:39:06.358Z,22.22
2018-08-19T04:40:06.405Z,22.41
2018-08-19T04:41:06.433Z,22.50
2018-08-19T04:42:06.483Z,23.46
2018-08-19T04:43:06.507Z,23.55
2018-08-19T04:44:06.556Z,23.55
2018-08-19T04:45:06.584Z,24.03
2018-08-19T04:46:06.619Z,23.93
2018-08-19T04:47:06.658Z,23.74
2018-08-19T04:48:06.695Z,23.65
2018-08-19T04:49:06.731Z,23.65
2018-08-19T04:50:06.768Z,23.55
2018-08-19T04:51:06.819Z,23.84
2018-08-19T04:52:06.843Z,24.41
2018-08-19T04:53:06.882Z,24.22
2018-08-19T04:54:06.917Z,24.22
2018-08-19T04:55:06.955Z,23.93
2018-08-19T04:56:06.991Z,24.41
2018-08-19T04:57:07.030Z,24.13
2018-08-19T04:58:07.066Z,24.79
2018-08-19T04:59:07.104Z,25.27
2018-08-19T05:00:07.143Z,25.46
2018-08-19T05:01:07.188Z,25.65
2018-08-19T05:02:07.318Z,25.94
2018-08-19T05:03:07.262Z,25.94
2018-08-19T05:04:07.291Z,26.52
2018-08-19T05:05:07.329Z,26.81
2018-08-19T05:06:07.365Z,27.38
2018-08-19T05:07:07.404Z,27.76
2018-08-19T05:08:07.535Z,28.05
2018-08-19T05:09:07.482Z,27.86
2018-08-19T05:10:07.516Z,29.38
2018-08-19T05:11:07.554Z,29.77
2018-08-19T05:12:07.592Z,30.63
2018-08-19T05:13:07.627Z,31.96
2018-08-19T05:14:07.665Z,31.96
2018-08-19T05:15:07.702Z,32.44
2018-08-19T05:16:07.754Z,32.06
2018-08-19T05:17:07.778Z,31.68
2018-08-19T05:18:07.814Z,30.91
2018-08-19T05:19:07.851Z,31.20
2018-08-19T05:20:07.890Z,31.87
2018-08-19T05:21:07.929Z,32.73
2018-08-19T05:22:07.966Z,34.25
2018-08-19T05:23:08.008Z,35.21
2018-08-19T05:24:08.040Z,36.25
2018-08-19T05:25:08.078Z,36.73
2018-08-19T05:26:08.117Z,38.83
2018-08-19T05:27:08.151Z,39.22
2018-08-19T05:28:08.196Z,40.95
2018-08-19T05:29:08.236Z,40.86
2018-08-19T05:30:08.263Z,41.24
2018-08-19T05:31:08.302Z,41.43
2018-08-19T05:32:08.339Z,42.38
2018-08-19T05:33:08.376Z,41.91
2018-08-19T05:34:08.414Z,42.67
2018-08-19T05:35:08.451Z,42.38
2018-08-19T05:36:08.490Z,42.10
2018-08-19T05:37:08.529Z,43.62
2018-08-19T05:38:08.650Z,42.96
2018-08-19T05:39:08.603Z,42.96
2018-08-19T05:40:08.641Z,42.29
2018-08-19T05:41:08.679Z,43.72
2018-08-19T05:42:08.721Z,44.77
2018-08-19T05:43:08.753Z,43.91
2018-08-19T05:44:08.792Z,44.48
2018-08-19T05:45:08.835Z,45.75
2018-08-19T05:46:08.867Z,46.20
2018-08-19T05:47:08.968Z,46.03
2018-08-19T05:48:08.943Z,44.87
2018-08-19T05:49:08.981Z,46.03
2018-08-19T05:50:09.019Z,45.37
2018-08-19T05:51:09.058Z,47.18
2018-08-19T05:52:09.093Z,46.32
2018-08-19T05:53:09.132Z,46.89
2018-08-19T05:54:09.305Z,48.04
2018-08-19T05:55:09.206Z,49.18
2018-08-19T05:56:09.246Z,49.28
2018-08-19T05:57:09.284Z,48.80
2018-08-19T05:58:09.320Z,48.90
2018-08-19T05:59:09.368Z,50.71
2018-08-19T06:00:09.394Z,50.81
2018-08-19T06:01:09.437Z,50.81
2018-08-19T06:02:09.470Z,51.79
2018-08-19T06:03:09.510Z,53.61
2018-08-19T06:04:09.556Z,53.89
2018-08-19T06:05:09.584Z,54.18
2018-08-19T06:06:09.622Z,53.89
2018-08-19T06:07:09.660Z,55.52
2018-08-19T06:08:09.697Z,55.61
2018-08-19T06:09:09.738Z,55.99
2018-08-19T06:10:09.782Z,56.95
2018-08-19T06:11:09.812Z,56.60
2018-08-19T06:12:09.850Z,56.98
2018-08-19T06:13:09.889Z,56.79
2018-08-19T06:14:09.924Z,57.84
2018-08-19T06:15:09.964Z,57.17
2018-08-19T06:16:10.006Z,58.61
2018-08-19T06:17:10.041Z,59.18
2018-08-19T06:18:10.077Z,60.42
2018-08-19T06:19:10.116Z,60.33
2018-08-19T06:20:10.157Z,61.09
2018-08-19T06:21:10.199Z,61.98
2018-08-19T06:22:10.234Z,63.70
2018-08-19T06:23:10.424Z,63.32
2018-08-19T06:24:10.321Z,63.80
2018-08-19T06:25:10.449Z,64.66
2018-08-19T06:26:10.386Z,64.95
2018-08-19T06:27:10.424Z,64.18
2018-08-19T06:28:10.462Z,63.89
2018-08-19T06:29:10.500Z,66.28
2018-08-19T06:30:10.539Z,67.18
2018-08-19T06:31:10.595Z,67.76
2018-08-19T06:32:10.616Z,68.33
2018-08-19T06:33:10.668Z,68.90
2018-08-19T06:34:10.696Z,69.57
2018-08-19T06:35:10.728Z,69.00
2018-08-19T06:36:10.769Z,70.43
2018-08-19T06:37:10.805Z,70.62
2018-08-19T06:38:10.842Z,72.38
2018-08-19T06:39:10.881Z,72.09
2018-08-19T06:40:10.922Z,71.42
2018-08-19T06:41:10.958Z,71.71
2018-08-19T06:42:10.998Z,73.24
2018-08-19T06:43:11.112Z,74.01
2018-08-19T06:44:11.079Z,73.72
2018-08-19T06:45:11.116Z,74.77
2018-08-19T06:46:11.156Z,73.82
2018-08-19T06:47:11.197Z,74.68
2018-08-19T06:48:11.233Z,75.64
2018-08-19T06:49:11.270Z,75.26
2018-08-19T06:50:11.308Z,76.06
2018-08-19T06:51:11.411Z,76.73
2018-08-19T06:52:11.429Z,77.88
2018-08-19T06:53:11.424Z,78.36
2018-08-19T06:54:11.463Z,79.22
2018-08-19T06:55:11.502Z,77.59
2018-08-19T06:56:11.538Z,78.74
2018-08-19T06:57:11.587Z,78.27
2018-08-19T06:58:11.616Z,78.78
2018-08-19T06:59:11.654Z,79.83
2018-08-19T07:00:11.693Z,80.41
2018-08-19T07:01:11.737Z,81.18
2018-08-19T07:02:11.781Z,80.51
2018-08-19T07:03:11.873Z,81.66
2018-08-19T07:04:11.847Z,81.66
2018-08-19T07:05:11.886Z,82.23
2018-08-19T07:06:11.928Z,81.46
2018-08-19T07:07:11.964Z,81.89
2018-08-19T07:08:12.004Z,82.27
2018-08-19T07:09:12.046Z,82.85
2018-08-19T07:10:12.088Z,83.42
2018-08-19T07:11:12.125Z,83.04
2018-08-19T07:12:12.169Z,83.42
2018-08-19T07:13:12.200Z,83.52
2018-08-19T07:14:12.238Z,83.42
2018-08-19T07:15:12.282Z,83.52
2018-08-19T07:16:12.316Z,84.09
2018-08-19T07:17:12.362Z,84.61
2018-08-19T07:18:12.403Z,84.91
2018-08-19T07:19:12.435Z,85.00
2018-08-19T07:20:12.479Z,85.00
2018-08-19T07:21:12.573Z,85.00
2018-08-19T07:22:13.047Z,85.10
2018-08-19T07:23:12.598Z,85.77
2018-08-19T07:24:12.631Z,85.28
2018-08-19T07:25:12.673Z,86.82
2018-08-19T07:26:12.709Z,86.82
2018-08-19T07:27:12.757Z,86.15
2018-08-19T07:28:12.789Z,86.63
2018-08-19T07:29:12.890Z,86.58
2018-08-19T07:30:12.966Z,86.77
2018-08-19T07:31:12.906Z,86.96
2018-08-19T07:32:12.947Z,86.87
2018-08-19T07:33:13.015Z,87.63
2018-08-19T07:34:13.029Z,87.44
2018-08-19T07:35:13.068Z,87.44
2018-08-19T07:36:13.413Z,86.96
2018-08-19T07:37:13.367Z,86.48
2018-08-19T07:38:13.183Z,85.85
2018-08-19T07:39:13.223Z,87.96
2018-08-19T07:40:13.261Z,87.87
2018-08-19T07:41:13.307Z,88.83
2018-08-19T07:42:13.350Z,88.25
2018-08-19T07:43:13.378Z,88.93
2018-08-19T07:44:13.421Z,88.54
2018-08-19T07:45:13.463Z,88.93
2018-08-19T07:46:13.509Z,89.89
2018-08-19T07:47:13.543Z,90.12
2018-08-19T07:48:13.584Z,90.51
2018-08-19T07:49:13.619Z,90.51
2018-08-19T07:50:13.657Z,89.64
2018-08-19T07:51:13.723Z,90.12
2018-08-19T07:52:13.741Z,90.99
2018-08-19T07:53:13.780Z,91.56
2018-08-19T07:54:13.819Z,91.08
2018-08-19T07:55:13.865Z,90.60
2018-08-19T07:56:13.901Z,90.89
2018-08-19T07:57:13.939Z,91.42
2018-08-19T07:58:13.977Z,91.22
2018-08-19T07:59:14.016Z,91.32
2018-08-19T08:00:14.058Z,91.42
2018-08-19T08:01:14.106Z,91.71
2018-08-19T08:02:14.136Z,91.13
2018-08-19T08:03:14.176Z,91.52
2018-08-19T08:04:14.224Z,91.71
2018-08-19T08:05:14.264Z,92.04
2018-08-19T08:06:14.296Z,92.23
2018-08-19T08:07:14.337Z,92.52
2018-08-19T08:08:14.381Z,92.43
2018-08-19T08:09:14.418Z,92.04
2018-08-19T08:10:14.464Z,92.43
2018-08-19T08:11:14.506Z,92.43
2018-08-19T08:12:14.537Z,93.24
2018-08-19T08:13:14.584Z,91.70
2018-08-19T08:14:14.621Z,93.33
2018-08-19T08:15:14.658Z,93.43
2018-08-19T08:16:14.703Z,92.47
2018-08-19T08:17:14.740Z,92.18
2018-08-19T08:18:14.780Z,92.66
2018-08-19T08:19:14.868Z,92.85
2018-08-19T08:20:14.860Z,92.18
2018-08-19T08:21:15.025Z,93.29
2018-08-19T08:22:14.940Z,93.19
2018-08-19T08:23:15.031Z,93.00
2018-08-19T08:24:15.023Z,93.19
2018-08-19T08:25:15.062Z,92.52
2018-08-19T08:26:15.102Z,92.90
2018-08-19T08:27:15.141Z,93.38
2018-08-19T08:28:15.183Z,93.09
2018-08-19T08:29:15.298Z,93.00
2018-08-19T08:30:15.272Z,92.94
2018-08-19T08:31:15.312Z,92.85
2018-08-19T08:32:15.346Z,92.94
2018-08-19T08:33:15.386Z,93.04
2018-08-19T08:34:15.453Z,92.76
2018-08-19T08:35:15.473Z,92.85
2018-08-19T08:36:15.515Z,93.14
2018-08-19T08:37:15.548Z,93.19
2018-08-19T08:38:15.588Z,93.38
2018-08-19T08:39:15.629Z,93.19
2018-08-19T08:40:15.669Z,93.28
2018-08-19T08:41:15.713Z,93.09
2018-08-19T08:42:15.750Z,93.09
2018-08-19T08:43:15.792Z,93.13
2018-08-19T08:44:15.833Z,92.56
2018-08-19T08:45:15.873Z,92.65
2018-08-19T08:46:15.914Z,92.08
2018-08-19T08:47:15.954Z,92.46
2018-08-19T08:48:15.996Z,92.65
2018-08-19T08:49:16.037Z,92.56
2018-08-19T08:50:16.085Z,91.50
2018-08-19T08:51:16.130Z,92.27
2018-08-19T08:52:16.163Z,91.44
2018-08-19T08:53:16.217Z,92.32
2018-08-19T08:54:16.241Z,91.35
2018-08-19T08:55:16.296Z,90.96
2018-08-19T08:56:16.352Z,90.48
2018-08-19T08:57:16.376Z,90.29
2018-08-19T08:58:16.419Z,90.09
2018-08-19T08:59:16.451Z,90.29
2018-08-19T09:00:16.505Z,90.67
2018-08-19T09:01:16.532Z,89.90
2018-08-19T09:02:16.570Z,90.19
2018-08-19T09:03:16.689Z,89.95
2018-08-19T09:04:16.653Z,90.29
2018-08-19T09:05:16.693Z,89.65
2018-08-19T09:06:16.734Z,89.56
2018-08-19T09:07:16.776Z,90.14
2018-08-19T09:08:16.818Z,90.14
2018-08-19T09:09:16.859Z,90.14
2018-08-19T09:10:16.900Z,89.65
2018-08-19T09:11:16.942Z,89.27
2018-08-19T09:12:16.982Z,88.21
2018-08-19T09:13:17.027Z,87.77
2018-08-19T09:14:17.064Z,87.38
2018-08-19T09:15:17.108Z,87.00
2018-08-19T09:16:17.149Z,87.00
2018-08-19T09:17:17.190Z,87.19
2018-08-19T09:18:17.235Z,86.71
2018-08-19T09:19:17.304Z,86.61
2018-08-19T09:20:17.314Z,86.52
2018-08-19T09:21:17.356Z,85.88
2018-08-19T09:22:17.468Z,85.98
2018-08-19T09:23:17.597Z,85.78
2018-08-19T09:24:17.491Z,85.98
2018-08-19T09:25:17.524Z,85.78
2018-08-19T09:26:17.566Z,84.82
2018-08-19T09:27:17.606Z,84.33
2018-08-19T09:28:17.648Z,83.99
2018-08-19T09:29:17.689Z,83.12
2018-08-19T09:30:17.738Z,82.06
2018-08-19T09:31:17.772Z,81.48
2018-08-19T09:32:17.819Z,81.19
2018-08-19T09:33:17.854Z,81.87
2018-08-19T09:34:17.896Z,81.09
2018-08-19T09:35:18.167Z,80.32
2018-08-19T09:36:17.981Z,78.87
2018-08-19T09:37:18.025Z,79.25
2018-08-19T09:38:18.060Z,79.39
2018-08-19T09:39:18.104Z,79.39
2018-08-19T09:40:18.148Z,79.87
2018-08-19T09:41:18.203Z,79.78
2018-08-19T09:42:18.232Z,79.29
2018-08-19T09:43:18.278Z,79.87
2018-08-19T09:44:18.317Z,80.16
2018-08-19T09:45:18.359Z,78.71
2018-08-19T09:47:18.445Z,77.75
2018-08-19T09:48:18.482Z,77.11
2018-08-19T09:49:18.529Z,77.17
2018-08-19T09:50:18.565Z,78.17
2018-08-19T09:51:18.609Z,77.69
2018-08-19T09:52:18.651Z,76.82
2018-08-19T09:53:18.697Z,75.75
2018-08-19T09:54:18.782Z,74.88
2018-08-19T09:55:18.788Z,71.82
2018-08-19T09:56:18.818Z,70.43
2018-08-19T09:57:18.862Z,70.86
2018-08-19T09:58:18.903Z,71.14
2018-08-19T09:59:18.956Z,72.11
2018-08-19T10:00:18.986Z,70.95
2018-08-19T10:01:19.029Z,70.27
2018-08-19T10:02:19.072Z,71.14
2018-08-19T10:03:19.128Z,70.27
2018-08-19T10:04:19.154Z,70.37
2018-08-19T10:05:19.197Z,68.76
2018-08-19T10:06:19.243Z,67.88
2018-08-19T10:07:19.355Z,68.66
2018-08-19T10:08:19.324Z,69.24
2018-08-19T10:09:19.368Z,69.53
2018-08-19T10:10:19.407Z,70.60
2018-08-19T10:11:19.457Z,68.66
2018-08-19T10:12:19.498Z,67.21
2018-08-19T10:13:19.536Z,67.88
2018-08-19T10:14:19.580Z,67.69
2018-08-19T10:15:19.622Z,68.47
2018-08-19T10:16:19.767Z,67.24
2018-08-19T10:17:20.022Z,67.44
2018-08-19T10:18:19.750Z,66.75
2018-08-19T10:19:19.791Z,64.34
2018-08-19T10:20:19.839Z,63.56
2018-08-19T10:21:19.877Z,63.75
2018-08-19T10:22:19.919Z,63.95
2018-08-19T10:23:19.960Z,63.07
2018-08-19T10:24:20.004Z,63.46
2018-08-19T10:25:20.063Z,63.65
2018-08-19T10:26:20.104Z,63.65
2018-08-19T10:27:20.149Z,64.24
2018-08-19T10:28:20.176Z,65.69
2018-08-19T10:29:20.214Z,66.85
2018-08-19T10:30:20.271Z,64.47
2018-08-19T10:31:20.304Z,62.91
2018-08-19T10:32:20.342Z,60.58
2018-08-19T10:33:20.387Z,60.61
2018-08-19T10:34:20.428Z,60.61
2018-08-19T10:35:20.469Z,61.49
2018-08-19T10:36:20.513Z,60.91
2018-08-19T10:37:20.557Z,59.77
2018-08-19T10:38:20.597Z,59.58
2018-08-19T10:39:20.643Z,58.90
2018-08-19T10:40:20.683Z,60.06
2018-08-19T10:41:20.725Z,58.22
2018-08-19T10:42:20.778Z,59.38
2018-08-19T10:43:20.814Z,59.31
2018-08-19T10:44:20.859Z,60.38
2018-08-19T10:45:21.002Z,60.38
2018-08-19T10:46:20.970Z,57.96
2018-08-19T10:47:20.985Z,57.96
2018-08-19T10:48:21.036Z,57.86
2018-08-19T10:49:21.072Z,57.01
2018-08-19T10:50:21.132Z,58.05
2018-08-19T10:51:21.159Z,57.79
2018-08-19T10:52:21.200Z,57.50
2018-08-19T10:53:21.283Z,56.34
2018-08-19T10:54:21.286Z,55.07
2018-08-19T10:55:21.327Z,54.39
2018-08-19T10:56:21.371Z,55.55
2018-08-19T10:57:21.562Z,56.52
2018-08-19T10:58:21.503Z,55.75
2018-08-19T10:59:21.506Z,55.46
2018-08-19T11:00:21.542Z,56.34
2018-08-19T11:01:21.587Z,55.94
2018-08-19T11:02:21.630Z,55.07
2018-08-19T11:03:21.675Z,55.17
2018-08-19T11:04:21.730Z,55.58
2018-08-19T11:05:21.759Z,54.61
2018-08-19T11:06:21.809Z,54.52
2018-08-19T11:07:21.849Z,52.25
2018-08-19T11:08:21.909Z,52.57
2018-08-19T11:09:21.935Z,53.25
2018-08-19T11:10:21.976Z,53.25
2018-08-19T11:11:22.020Z,51.60
2018-08-19T11:12:22.063Z,52.19
2018-08-19T11:13:22.187Z,52.57
2018-08-19T11:14:22.151Z,52.37
2018-08-19T11:15:22.194Z,52.76
2018-08-19T11:16:22.237Z,51.21
2018-08-19T11:17:22.297Z,50.34
2018-08-19T11:18:22.358Z,51.60
2018-08-19T11:19:22.377Z,51.60
2018-08-19T11:20:22.415Z,51.50
2018-08-19T11:21:22.474Z,51.11
2018-08-19T11:22:22.502Z,50.95
2018-08-19T11:23:22.547Z,51.23
2018-08-19T11:24:22.587Z,52.40
2018-08-19T11:25:22.648Z,49.87
2018-08-19T11:26:22.671Z,48.90
2018-08-19T11:27:22.717Z,47.93
2018-08-19T11:28:22.759Z,48.97
2018-08-19T11:29:23.018Z,49.76
2018-08-19T11:30:22.847Z,48.39
2018-08-19T11:31:22.964Z,48.00
2018-08-19T11:32:22.934Z,48.58
2018-08-19T11:33:22.979Z,47.61
2018-08-19T11:34:23.022Z,48.39
2018-08-19T11:35:23.071Z,48.03
2018-08-19T11:36:23.109Z,48.61
2018-08-19T11:37:23.152Z,48.32
2018-08-19T11:38:23.196Z,48.13
2018-08-19T11:39:23.242Z,48.61
2018-08-19T11:40:23.284Z,47.54
2018-08-19T11:41:23.328Z,47.54
2018-08-19T11:42:23.373Z,48.41
2018-08-19T11:43:23.471Z,48.05
2018-08-19T11:44:23.466Z,46.69
2018-08-19T11:45:23.504Z,47.66
2018-08-19T11:46:23.546Z,48.54
2018-08-19T11:47:23.592Z,47.76
2018-08-19T11:48:23.635Z,47.66
2018-08-19T11:49:23.738Z,48.15
2018-08-19T11:50:23.724Z,48.63
2018-08-19T11:51:23.768Z,48.36
2018-08-19T11:52:23.811Z,48.66
2018-08-19T11:53:23.854Z,48.85
2018-08-19T11:54:23.898Z,49.05
2018-08-19T11:55:23.967Z,47.98
2018-08-19T11:56:23.988Z,47.69
2018-08-19T11:57:24.038Z,47.78
2018-08-19T11:58:24.077Z,49.05
2018-08-19T11:59:24.121Z,48.68
2018-08-19T12:00:24.161Z,49.05
2018-08-19T12:01:24.207Z,48.49
2018-08-19T12:02:24.249Z,47.71
2018-08-19T12:03:24.294Z,48.00
2018-08-19T12:04:24.338Z,48.29
2018-08-19T12:05:24.389Z,47.71
2018-08-19T12:06:24.424Z,47.71
2018-08-19T12:07:24.478Z,47.71
2018-08-19T12:08:24.514Z,48.10
2018-08-19T12:09:24.582Z,48.00
2018-08-19T12:10:24.633Z,48.19
2018-08-19T12:11:24.647Z,48.58
2018-08-19T12:12:24.697Z,48.10
2018-08-19T12:13:24.735Z,48.58
2018-08-19T12:14:24.787Z,48.39
2018-08-19T12:15:24.824Z,48.10
2018-08-19T12:16:24.869Z,47.42
2018-08-19T12:17:24.916Z,48.19
2018-08-19T12:18:24.962Z,46.64
2018-08-19T12:19:25.002Z,47.52
2018-08-19T12:20:25.043Z,47.42
2018-08-19T12:21:25.092Z,48.00
2018-08-19T12:22:25.138Z,48.68
2018-08-19T12:23:25.187Z,48.49
2018-08-19T12:24:25.225Z,48.78
2018-08-19T12:25:25.267Z,47.32
2018-08-19T12:26:25.310Z,46.93
2018-08-19T12:27:25.406Z,48.19
2018-08-19T12:28:25.399Z,48.00
2018-08-19T12:29:25.545Z,47.71
2018-08-19T12:30:25.489Z,48.10
2018-08-19T12:31:25.541Z,47.52
2018-08-19T12:32:25.601Z,47.80
2018-08-19T12:33:25.631Z,48.49
2018-08-19T12:34:25.684Z,47.42
2018-08-19T12:35:25.709Z,47.61
2018-08-19T12:36:25.766Z,47.80
2018-08-19T12:37:25.844Z,48.49
2018-08-19T12:38:25.848Z,48.49
2018-08-19T12:39:25.895Z,48.49
2018-08-19T12:40:25.943Z,47.80
2018-08-19T12:41:25.982Z,48.68
2018-08-19T12:42:26.022Z,48.19
2018-08-19T12:43:26.068Z,48.10
2018-08-19T12:44:26.110Z,47.83
2018-08-19T12:45:26.156Z,47.90
2018-08-19T12:46:26.197Z,47.90
2018-08-19T12:47:26.241Z,46.56
2018-08-19T12:48:26.298Z,46.47
2018-08-19T12:49:26.341Z,45.59
2018-08-19T12:50:26.375Z,45.68
2018-08-19T12:51:26.452Z,45.51
2018-08-19T12:52:26.472Z,45.90
2018-08-19T12:53:26.508Z,45.61
2018-08-19T12:54:26.553Z,45.03